Terminal Aerodrome Forecast
Issued by NWS Grand Forks, ND

Home | Current Version | Previous Version | Text Only | Print | Product List | Glossary On
Versions: 1 2 3 4 5 6 7 8 9 10 11 12 13 14 15 16 17
839
FTUS43 KFGF 230520
TAFFAR
TAF
KFAR 230520Z 2306/2406 02014G24KT P6SM SCT025 BKN035
      TEMPO 2306/2309 -RASN BKN025
     FM230900 04014KT P6SM BKN020
      TEMPO 2309/2312 4SM -SN BKN015
     FM231700 07014KT P6SM BKN020=

USA.gov is the U.S. government's official web portal to all federal, state and local government web resources and services.